sensor_id;sensor_type;location;lat;lon;timestamp;P1;durP1;ratioP1;P2;durP2;ratioP2
25922;SDS011;13725;51.170;4.442;2023-06-10T00:01:56;12.07;;;7.03;;
25922;SDS011;13725;51.170;4.442;2023-06-10T00:04:25;10.70;;;7.32;;
25922;SDS011;13725;51.170;4.442;2023-06-10T00:06:52;9.43;;;7.80;;
25922;SDS011;13725;51.170;4.442;2023-06-10T00:09:19;10.70;;;7.40;;
25922;SDS011;13725;51.170;4.442;2023-06-10T00:11:46;10.57;;;7.90;;
25922;SDS011;13725;51.170;4.442;2023-06-10T00:14:12;13.18;;;7.28;;
25922;SDS011;13725;51.170;4.442;2023-06-10T00:16:38;16.08;;;8.10;;
25922;SDS011;13725;51.170;4.442;2023-06-10T00:19:04;10.05;;;7.60;;
25922;SDS011;13725;51.170;4.442;2023-06-10T00:21:30;11.70;;;7.18;;
25922;SDS011;13725;51.170;4.442;2023-06-10T00:24:05;12.23;;;7.53;;
25922;SDS011;13725;51.170;4.442;2023-06-10T00:26:32;13.48;;;8.48;;
25922;SDS011;13725;51.170;4.442;2023-06-10T00:28:58;12.23;;;7.97;;
25922;SDS011;13725;51.170;4.442;2023-06-10T00:31:26;10.55;;;7.30;;
25922;SDS011;13725;51.170;4.442;2023-06-10T00:33:52;9.73;;;7.70;;
25922;SDS011;13725;51.170;4.442;2023-06-10T00:36:18;11.77;;;7.85;;
25922;SDS011;13725;51.170;4.442;2023-06-10T00:38:44;11.75;;;7.78;;
25922;SDS011;13725;51.170;4.442;2023-06-10T00:41:10;9.18;;;7.85;;
25922;SDS011;13725;51.170;4.442;2023-06-10T00:43:35;12.15;;;7.68;;
25922;SDS011;13725;51.170;4.442;2023-06-10T00:46:01;16.48;;;7.75;;
25922;SDS011;13725;51.170;4.442;2023-06-10T00:48:28;12.63;;;7.65;;
25922;SDS011;13725;51.170;4.442;2023-06-10T00:50:55;11.27;;;7.57;;
25922;SDS011;13725;51.170;4.442;2023-06-10T00:53:22;10.48;;;7.65;;
25922;SDS011;13725;51.170;4.442;2023-06-10T00:55:48;12.23;;;8.57;;
25922;SDS011;13725;51.170;4.442;2023-06-10T00:58:14;12.82;;;8.50;;
25922;SDS011;13725;51.170;4.442;2023-06-10T01:00:40;10.00;;;7.90;;
25922;SDS011;13725;51.170;4.442;2023-06-10T01:03:06;11.98;;;7.90;;
25922;SDS011;13725;51.170;4.442;2023-06-10T01:05:35;14.55;;;8.60;;
25922;SDS011;13725;51.170;4.442;2023-06-10T01:08:03;11.85;;;7.57;;
25922;SDS011;13725;51.170;4.442;2023-06-10T01:13:16;9.80;;;7.90;;
25922;SDS011;13725;51.170;4.442;2023-06-10T01:15:43;9.43;;;7.47;;
25922;SDS011;13725;51.170;4.442;2023-06-10T01:18:11;10.75;;;7.97;;
25922;SDS011;13725;51.170;4.442;2023-06-10T01:20:40;12.35;;;7.60;;
25922;SDS011;13725;51.170;4.442;2023-06-10T01:23:10;11.77;;;8.43;;
25922;SDS011;13725;51.170;4.442;2023-06-10T01:25:40;11.70;;;8.10;;
25922;SDS011;13725;51.170;4.442;2023-06-10T01:28:29;16.30;;;8.02;;
25922;SDS011;13725;51.170;4.442;2023-06-10T01:33:40;10.85;;;8.20;;
25922;SDS011;13725;51.170;4.442;2023-06-10T01:36:08;12.30;;;8.43;;
25922;SDS011;13725;51.170;4.442;2023-06-10T01:38:42;12.32;;;8.90;;
25922;SDS011;13725;51.170;4.442;2023-06-10T01:41:11;11.30;;;7.78;;
25922;SDS011;13725;51.170;4.442;2023-06-10T01:43:39;13.38;;;8.88;;
25922;SDS011;13725;51.170;4.442;2023-06-10T01:46:07;10.95;;;8.18;;
25922;SDS011;13725;51.170;4.442;2023-06-10T01:48:32;10.32;;;8.10;;
25922;SDS011;13725;51.170;4.442;2023-06-10T01:50:58;11.63;;;8.40;;
25922;SDS011;13725;51.170;4.442;2023-06-10T01:53:24;9.85;;;8.18;;
25922;SDS011;13725;51.170;4.442;2023-06-10T01:55:50;11.38;;;8.23;;
25922;SDS011;13725;51.170;4.442;2023-06-10T01:58:16;10.40;;;8.57;;
25922;SDS011;13725;51.170;4.442;2023-06-10T02:00:42;11.05;;;8.48;;
25922;SDS011;13725;51.170;4.442;2023-06-10T02:03:09;11.85;;;9.45;;
25922;SDS011;13725;51.170;4.442;2023-06-10T02:05:34;13.55;;;8.55;;
25922;SDS011;13725;51.170;4.442;2023-06-10T02:08:00;11.55;;;8.40;;
25922;SDS011;13725;51.170;4.442;2023-06-10T02:10:26;12.52;;;9.52;;
25922;SDS011;13725;51.170;4.442;2023-06-10T02:12:52;16.33;;;8.98;;
25922;SDS011;13725;51.170;4.442;2023-06-10T02:15:18;11.15;;;8.68;;
25922;SDS011;13725;51.170;4.442;2023-06-10T02:17:46;14.68;;;9.07;;
25922;SDS011;13725;51.170;4.442;2023-06-10T02:20:11;13.82;;;10.32;;
25922;SDS011;13725;51.170;4.442;2023-06-10T02:22:38;13.38;;;9.20;;
25922;SDS011;13725;51.170;4.442;2023-06-10T02:25:06;11.52;;;8.73;;
25922;SDS011;13725;51.170;4.442;2023-06-10T02:27:33;21.58;;;9.80;;
25922;SDS011;13725;51.170;4.442;2023-06-10T02:29:59;12.05;;;9.18;;
25922;SDS011;13725;51.170;4.442;2023-06-10T02:32:25;13.90;;;9.88;;
25922;SDS011;13725;51.170;4.442;2023-06-10T02:34:52;11.48;;;9.15;;
25922;SDS011;13725;51.170;4.442;2023-06-10T02:37:20;11.98;;;9.98;;
25922;SDS011;13725;51.170;4.442;2023-06-10T02:39:47;13.15;;;9.32;;
25922;SDS011;13725;51.170;4.442;2023-06-10T02:42:14;15.32;;;9.13;;
25922;SDS011;13725;51.170;4.442;2023-06-10T02:44:39;13.68;;;9.63;;
25922;SDS011;13725;51.170;4.442;2023-06-10T02:47:08;13.98;;;9.20;;
25922;SDS011;13725;51.170;4.442;2023-06-10T02:49:36;16.50;;;10.00;;
25922;SDS011;13725;51.170;4.442;2023-06-10T02:52:02;12.55;;;10.43;;
25922;SDS011;13725;51.170;4.442;2023-06-10T02:54:28;14.77;;;10.95;;
25922;SDS011;13725;51.170;4.442;2023-06-10T02:56:56;14.43;;;11.05;;
25922;SDS011;13725;51.170;4.442;2023-06-10T02:59:24;11.65;;;10.38;;
25922;SDS011;13725;51.170;4.442;2023-06-10T03:01:53;15.50;;;11.73;;
25922;SDS011;13725;51.170;4.442;2023-06-10T03:04:19;14.32;;;10.63;;
25922;SDS011;13725;51.170;4.442;2023-06-10T03:06:53;14.05;;;10.75;;
25922;SDS011;13725;51.170;4.442;2023-06-10T03:09:25;14.35;;;11.15;;
25922;SDS011;13725;51.170;4.442;2023-06-10T03:11:55;12.82;;;10.70;;
25922;SDS011;13725;51.170;4.442;2023-06-10T03:14:22;15.48;;;10.98;;
25922;SDS011;13725;51.170;4.442;2023-06-10T03:16:50;15.23;;;10.80;;
25922;SDS011;13725;51.170;4.442;2023-06-10T03:19:16;16.27;;;10.88;;
25922;SDS011;13725;51.170;4.442;2023-06-10T03:21:49;16.73;;;11.98;;
25922;SDS011;13725;51.170;4.442;2023-06-10T03:24:23;15.00;;;11.43;;
25922;SDS011;13725;51.170;4.442;2023-06-10T03:26:49;17.48;;;10.50;;
25922;SDS011;13725;51.170;4.442;2023-06-10T03:29:16;13.73;;;10.75;;
25922;SDS011;13725;51.170;4.442;2023-06-10T03:31:42;14.70;;;9.93;;
25922;SDS011;13725;51.170;4.442;2023-06-10T03:34:08;17.95;;;11.23;;
25922;SDS011;13725;51.170;4.442;2023-06-10T03:36:33;15.27;;;10.63;;
25922;SDS011;13725;51.170;4.442;2023-06-10T03:39:00;17.33;;;10.65;;
25922;SDS011;13725;51.170;4.442;2023-06-10T03:41:27;16.85;;;11.15;;
25922;SDS011;13725;51.170;4.442;2023-06-10T03:43:53;13.60;;;10.52;;
25922;SDS011;13725;51.170;4.442;2023-06-10T03:46:19;13.15;;;10.48;;
25922;SDS011;13725;51.170;4.442;2023-06-10T03:48:45;14.85;;;10.43;;
25922;SDS011;13725;51.170;4.442;2023-06-10T03:51:11;16.95;;;10.82;;
25922;SDS011;13725;51.170;4.442;2023-06-10T03:53:37;13.68;;;10.43;;
25922;SDS011;13725;51.170;4.442;2023-06-10T03:56:03;13.68;;;10.38;;
25922;SDS011;13725;51.170;4.442;2023-06-10T03:58:29;14.20;;;10.02;;
25922;SDS011;13725;51.170;4.442;2023-06-10T04:00:55;20.17;;;10.50;;
25922;SDS011;13725;51.170;4.442;2023-06-10T04:03:29;17.85;;;11.65;;
25922;SDS011;13725;51.170;4.442;2023-06-10T04:05:55;14.45;;;10.55;;
25922;SDS011;13725;51.170;4.442;2023-06-10T04:08:20;16.20;;;10.60;;
25922;SDS011;13725;51.170;4.442;2023-06-10T04:10:47;18.42;;;10.88;;
25922;SDS011;13725;51.170;4.442;2023-06-10T04:13:13;13.75;;;9.80;;
25922;SDS011;13725;51.170;4.442;2023-06-10T04:15:47;15.88;;;10.70;;
25922;SDS011;13725;51.170;4.442;2023-06-10T04:18:15;17.92;;;10.55;;
25922;SDS011;13725;51.170;4.442;2023-06-10T04:20:43;14.88;;;10.40;;
25922;SDS011;13725;51.170;4.442;2023-06-10T04:23:10;14.82;;;9.80;;
25922;SDS011;13725;51.170;4.442;2023-06-10T04:25:36;12.98;;;10.57;;
25922;SDS011;13725;51.170;4.442;2023-06-10T04:28:02;14.20;;;10.25;;
25922;SDS011;13725;51.170;4.442;2023-06-10T04:30:29;14.23;;;10.10;;
25922;SDS011;13725;51.170;4.442;2023-06-10T04:32:56;13.65;;;9.85;;
25922;SDS011;13725;51.170;4.442;2023-06-10T04:35:22;16.15;;;10.73;;
25922;SDS011;13725;51.170;4.442;2023-06-10T04:37:48;14.93;;;10.57;;
25922;SDS011;13725;51.170;4.442;2023-06-10T04:40:15;16.20;;;10.60;;
25922;SDS011;13725;51.170;4.442;2023-06-10T04:42:41;13.88;;;11.00;;
25922;SDS011;13725;51.170;4.442;2023-06-10T04:45:07;13.52;;;10.02;;
25922;SDS011;13725;51.170;4.442;2023-06-10T04:47:34;15.27;;;10.32;;
25922;SDS011;13725;51.170;4.442;2023-06-10T04:50:00;17.20;;;9.77;;
25922;SDS011;13725;51.170;4.442;2023-06-10T04:52:29;11.82;;;9.60;;
25922;SDS011;13725;51.170;4.442;2023-06-10T04:54:55;15.27;;;10.95;;
25922;SDS011;13725;51.170;4.442;2023-06-10T04:57:23;14.68;;;10.60;;
25922;SDS011;13725;51.170;4.442;2023-06-10T04:59:48;12.70;;;10.23;;
25922;SDS011;13725;51.170;4.442;2023-06-10T05:02:14;15.02;;;10.40;;
25922;SDS011;13725;51.170;4.442;2023-06-10T05:04:40;16.25;;;10.13;;
25922;SDS011;13725;51.170;4.442;2023-06-10T05:07:06;11.75;;;9.75;;
25922;SDS011;13725;51.170;4.442;2023-06-10T05:09:32;17.27;;;10.55;;
25922;SDS011;13725;51.170;4.442;2023-06-10T05:11:58;14.98;;;10.73;;
25922;SDS011;13725;51.170;4.442;2023-06-10T05:14:24;14.98;;;10.05;;
25922;SDS011;13725;51.170;4.442;2023-06-10T05:16:49;15.00;;;10.18;;
25922;SDS011;13725;51.170;4.442;2023-06-10T05:19:15;14.05;;;10.43;;
25922;SDS011;13725;51.170;4.442;2023-06-10T05:21:44;14.95;;;9.90;;
25922;SDS011;13725;51.170;4.442;2023-06-10T05:24:10;15.85;;;10.82;;
25922;SDS011;13725;51.170;4.442;2023-06-10T05:26:36;14.38;;;10.73;;
25922;SDS011;13725;51.170;4.442;2023-06-10T05:29:03;15.20;;;10.35;;
25922;SDS011;13725;51.170;4.442;2023-06-10T05:31:29;16.92;;;10.82;;
25922;SDS011;13725;51.170;4.442;2023-06-10T05:33:55;15.80;;;10.20;;
25922;SDS011;13725;51.170;4.442;2023-06-10T05:36:21;15.65;;;10.25;;
25922;SDS011;13725;51.170;4.442;2023-06-10T05:38:47;13.65;;;10.45;;
25922;SDS011;13725;51.170;4.442;2023-06-10T05:41:12;14.95;;;11.25;;
25922;SDS011;13725;51.170;4.442;2023-06-10T05:43:38;14.50;;;11.32;;
25922;SDS011;13725;51.170;4.442;2023-06-10T05:46:05;13.82;;;11.20;;
25922;SDS011;13725;51.170;4.442;2023-06-10T05:48:31;11.40;;;9.85;;
25922;SDS011;13725;51.170;4.442;2023-06-10T05:50:56;19.23;;;10.45;;
25922;SDS011;13725;51.170;4.442;2023-06-10T05:53:22;15.90;;;9.63;;
25922;SDS011;13725;51.170;4.442;2023-06-10T05:55:48;13.55;;;9.57;;
25922;SDS011;13725;51.170;4.442;2023-06-10T05:58:14;15.45;;;10.60;;
25922;SDS011;13725;51.170;4.442;2023-06-10T06:00:40;18.35;;;11.90;;
25922;SDS011;13725;51.170;4.442;2023-06-10T06:03:06;12.88;;;10.00;;
25922;SDS011;13725;51.170;4.442;2023-06-10T06:05:33;13.68;;;9.80;;
25922;SDS011;13725;51.170;4.442;2023-06-10T06:08:01;13.57;;;10.75;;
25922;SDS011;13725;51.170;4.442;2023-06-10T06:10:27;12.50;;;10.02;;
25922;SDS011;13725;51.170;4.442;2023-06-10T06:12:53;17.23;;;10.00;;
25922;SDS011;13725;51.170;4.442;2023-06-10T06:15:18;12.57;;;9.70;;
25922;SDS011;13725;51.170;4.442;2023-06-10T06:17:44;16.83;;;10.43;;
25922;SDS011;13725;51.170;4.442;2023-06-10T06:20:10;11.63;;;9.20;;
25922;SDS011;13725;51.170;4.442;2023-06-10T06:22:36;15.88;;;9.63;;
25922;SDS011;13725;51.170;4.442;2023-06-10T06:25:02;15.35;;;9.85;;
25922;SDS011;13725;51.170;4.442;2023-06-10T06:27:28;13.55;;;9.15;;
25922;SDS011;13725;51.170;4.442;2023-06-10T06:29:53;13.13;;;9.25;;
25922;SDS011;13725;51.170;4.442;2023-06-10T06:32:19;14.00;;;8.95;;
25922;SDS011;13725;51.170;4.442;2023-06-10T06:34:47;16.63;;;9.27;;
25922;SDS011;13725;51.170;4.442;2023-06-10T06:37:14;11.52;;;8.75;;
25922;SDS011;13725;51.170;4.442;2023-06-10T06:39:42;13.50;;;8.70;;
25922;SDS011;13725;51.170;4.442;2023-06-10T06:42:08;15.00;;;8.52;;
25922;SDS011;13725;51.170;4.442;2023-06-10T06:44:52;12.40;;;8.75;;
25922;SDS011;13725;51.170;4.442;2023-06-10T06:47:18;14.60;;;8.93;;
25922;SDS011;13725;51.170;4.442;2023-06-10T06:49:47;14.13;;;8.73;;
25922;SDS011;13725;51.170;4.442;2023-06-10T06:52:14;9.65;;;8.23;;
25922;SDS011;13725;51.170;4.442;2023-06-10T06:54:40;11.40;;;8.20;;
25922;SDS011;13725;51.170;4.442;2023-06-10T06:57:06;11.70;;;8.23;;
25922;SDS011;13725;51.170;4.442;2023-06-10T06:59:33;10.80;;;7.93;;
25922;SDS011;13725;51.170;4.442;2023-06-10T07:01:58;14.32;;;8.32;;
25922;SDS011;13725;51.170;4.442;2023-06-10T07:04:25;10.95;;;7.38;;
25922;SDS011;13725;51.170;4.442;2023-06-10T07:06:50;11.20;;;7.38;;
25922;SDS011;13725;51.170;4.442;2023-06-10T07:09:16;9.13;;;7.72;;
25922;SDS011;13725;51.170;4.442;2023-06-10T07:11:43;10.23;;;7.20;;
25922;SDS011;13725;51.170;4.442;2023-06-10T07:14:08;9.68;;;7.15;;
25922;SDS011;13725;51.170;4.442;2023-06-10T07:16:34;8.77;;;7.20;;
25922;SDS011;13725;51.170;4.442;2023-06-10T07:19:01;10.38;;;7.55;;
25922;SDS011;13725;51.170;4.442;2023-06-10T07:21:27;9.30;;;7.25;;
25922;SDS011;13725;51.170;4.442;2023-06-10T07:23:53;9.27;;;7.10;;
25922;SDS011;13725;51.170;4.442;2023-06-10T07:26:21;12.90;;;6.97;;
25922;SDS011;13725;51.170;4.442;2023-06-10T07:28:47;9.60;;;6.32;;
25922;SDS011;13725;51.170;4.442;2023-06-10T07:31:13;10.90;;;7.13;;
25922;SDS011;13725;51.170;4.442;2023-06-10T07:33:38;8.65;;;6.82;;
25922;SDS011;13725;51.170;4.442;2023-06-10T07:36:05;10.15;;;7.25;;
25922;SDS011;13725;51.170;4.442;2023-06-10T07:38:31;8.32;;;6.80;;
25922;SDS011;13725;51.170;4.442;2023-06-10T07:40:56;8.13;;;7.32;;
25922;SDS011;13725;51.170;4.442;2023-06-10T07:43:23;10.23;;;6.43;;
25922;SDS011;13725;51.170;4.442;2023-06-10T07:45:50;12.77;;;6.88;;
25922;SDS011;13725;51.170;4.442;2023-06-10T07:48:15;15.23;;;7.07;;
25922;SDS011;13725;51.170;4.442;2023-06-10T07:50:41;11.95;;;6.85;;
25922;SDS011;13725;51.170;4.442;2023-06-10T07:53:07;8.15;;;6.50;;
25922;SDS011;13725;51.170;4.442;2023-06-10T07:55:32;8.40;;;6.68;;
25922;SDS011;13725;51.170;4.442;2023-06-10T07:57:58;6.95;;;6.18;;
25922;SDS011;13725;51.170;4.442;2023-06-10T08:00:24;9.77;;;6.57;;
25922;SDS011;13725;51.170;4.442;2023-06-10T08:02:50;10.48;;;5.85;;
25922;SDS011;13725;51.170;4.442;2023-06-10T08:05:17;6.95;;;5.43;;
25922;SDS011;13725;51.170;4.442;2023-06-10T08:07:43;6.97;;;5.65;;
25922;SDS011;13725;51.170;4.442;2023-06-10T08:10:09;10.13;;;6.40;;
25922;SDS011;13725;51.170;4.442;2023-06-10T08:12:35;8.65;;;5.97;;
25922;SDS011;13725;51.170;4.442;2023-06-10T08:15:01;10.60;;;5.60;;
25922;SDS011;13725;51.170;4.442;2023-06-10T08:17:29;7.65;;;6.20;;
25922;SDS011;13725;51.170;4.442;2023-06-10T08:19:57;7.80;;;5.97;;
25922;SDS011;13725;51.170;4.442;2023-06-10T08:22:23;8.75;;;5.53;;
25922;SDS011;13725;51.170;4.442;2023-06-10T08:24:49;7.40;;;5.40;;
25922;SDS011;13725;51.170;4.442;2023-06-10T08:27:15;8.57;;;5.75;;
25922;SDS011;13725;51.170;4.442;2023-06-10T08:29:40;8.85;;;6.20;;
25922;SDS011;13725;51.170;4.442;2023-06-10T08:32:07;7.07;;;5.55;;
25922;SDS011;13725;51.170;4.442;2023-06-10T08:34:33;9.10;;;5.88;;
25922;SDS011;13725;51.170;4.442;2023-06-10T08:37:02;8.63;;;5.18;;
25922;SDS011;13725;51.170;4.442;2023-06-10T08:39:29;7.93;;;5.82;;
25922;SDS011;13725;51.170;4.442;2023-06-10T08:44:46;8.32;;;5.05;;
25922;SDS011;13725;51.170;4.442;2023-06-10T08:49:43;8.95;;;5.03;;
25922;SDS011;13725;51.170;4.442;2023-06-10T08:52:17;6.20;;;4.93;;
25922;SDS011;13725;51.170;4.442;2023-06-10T08:54:49;6.65;;;4.43;;
25922;SDS011;13725;51.170;4.442;2023-06-10T08:57:36;6.80;;;4.82;;
25922;SDS011;13725;51.170;4.442;2023-06-10T09:00:02;7.20;;;4.55;;
25922;SDS011;13725;51.170;4.442;2023-06-10T09:02:28;6.68;;;4.93;;
25922;SDS011;13725;51.170;4.442;2023-06-10T09:04:55;5.60;;;4.85;;
25922;SDS011;13725;51.170;4.442;2023-06-10T09:07:22;7.32;;;4.72;;
25922;SDS011;13725;51.170;4.442;2023-06-10T09:09:50;5.70;;;4.53;;
25922;SDS011;13725;51.170;4.442;2023-06-10T09:12:18;7.18;;;4.85;;
25922;SDS011;13725;51.170;4.442;2023-06-10T09:14:44;5.95;;;4.55;;
25922;SDS011;13725;51.170;4.442;2023-06-10T09:17:10;8.05;;;4.95;;
25922;SDS011;13725;51.170;4.442;2023-06-10T09:19:36;6.00;;;5.13;;
25922;SDS011;13725;51.170;4.442;2023-06-10T09:22:04;7.35;;;4.45;;
25922;SDS011;13725;51.170;4.442;2023-06-10T09:24:31;7.53;;;5.72;;
25922;SDS011;13725;51.170;4.442;2023-06-10T09:27:04;19.10;;;6.20;;
25922;SDS011;13725;51.170;4.442;2023-06-10T09:30:05;7.72;;;5.97;;
25922;SDS011;13725;51.170;4.442;2023-06-10T09:32:23;8.60;;;5.03;;
25922;SDS011;13725;51.170;4.442;2023-06-10T09:34:50;6.85;;;5.53;;
25922;SDS011;13725;51.170;4.442;2023-06-10T09:37:25;7.10;;;5.13;;
25922;SDS011;13725;51.170;4.442;2023-06-10T09:40:00;9.70;;;5.00;;
25922;SDS011;13725;51.170;4.442;2023-06-10T09:42:29;9.10;;;5.80;;
25922;SDS011;13725;51.170;4.442;2023-06-10T09:45:01;8.18;;;5.60;;
25922;SDS011;13725;51.170;4.442;2023-06-10T09:47:28;8.73;;;5.75;;
25922;SDS011;13725;51.170;4.442;2023-06-10T09:49:54;7.43;;;4.95;;
25922;SDS011;13725;51.170;4.442;2023-06-10T09:52:23;7.45;;;5.35;;
25922;SDS011;13725;51.170;4.442;2023-06-10T09:54:53;7.22;;;5.22;;
25922;SDS011;13725;51.170;4.442;2023-06-10T09:57:20;8.32;;;4.90;;
25922;SDS011;13725;51.170;4.442;2023-06-10T09:59:46;7.90;;;4.57;;
25922;SDS011;13725;51.170;4.442;2023-06-10T10:02:15;9.30;;;5.20;;
25922;SDS011;13725;51.170;4.442;2023-06-10T10:04:42;9.95;;;5.30;;
25922;SDS011;13725;51.170;4.442;2023-06-10T10:07:09;5.50;;;5.00;;
25922;SDS011;13725;51.170;4.442;2023-06-10T10:09:36;8.27;;;5.10;;
25922;SDS011;13725;51.170;4.442;2023-06-10T10:14:35;5.65;;;4.72;;
25922;SDS011;13725;51.170;4.442;2023-06-10T10:17:02;8.80;;;4.70;;
25922;SDS011;13725;51.170;4.442;2023-06-10T10:19:31;6.40;;;4.57;;
25922;SDS011;13725;51.170;4.442;2023-06-10T10:22:04;6.00;;;4.70;;
25922;SDS011;13725;51.170;4.442;2023-06-10T10:24:38;5.57;;;4.95;;
25922;SDS011;13725;51.170;4.442;2023-06-10T10:27:14;7.47;;;5.00;;
25922;SDS011;13725;51.170;4.442;2023-06-10T10:29:45;5.20;;;4.30;;
25922;SDS011;13725;51.170;4.442;2023-06-10T10:32:13;6.43;;;4.35;;
25922;SDS011;13725;51.170;4.442;2023-06-10T10:34:56;11.60;;;4.38;;
25922;SDS011;13725;51.170;4.442;2023-06-10T10:37:23;9.27;;;4.35;;
25922;SDS011;13725;51.170;4.442;2023-06-10T10:39:51;6.00;;;4.78;;
25922;SDS011;13725;51.170;4.442;2023-06-10T10:42:17;6.50;;;4.80;;
25922;SDS011;13725;51.170;4.442;2023-06-10T10:44:43;7.20;;;4.80;;
25922;SDS011;13725;51.170;4.442;2023-06-10T10:47:09;10.75;;;4.68;;
25922;SDS011;13725;51.170;4.442;2023-06-10T10:49:37;6.60;;;4.55;;
25922;SDS011;13725;51.170;4.442;2023-06-10T10:52:04;9.30;;;4.50;;
25922;SDS011;13725;51.170;4.442;2023-06-10T10:54:36;9.85;;;4.70;;
25922;SDS011;13725;51.170;4.442;2023-06-10T10:59:42;8.43;;;4.78;;
25922;SDS011;13725;51.170;4.442;2023-06-10T11:02:18;7.47;;;5.35;;
25922;SDS011;13725;51.170;4.442;2023-06-10T11:04:56;7.60;;;5.28;;
25922;SDS011;13725;51.170;4.442;2023-06-10T11:07:24;8.23;;;4.85;;
25922;SDS011;13725;51.170;4.442;2023-06-10T11:09:57;5.88;;;4.68;;
25922;SDS011;13725;51.170;4.442;2023-06-10T11:15:24;9.80;;;4.85;;
25922;SDS011;13725;51.170;4.442;2023-06-10T11:23:24;7.80;;;4.68;;
25922;SDS011;13725;51.170;4.442;2023-06-10T11:26:09;8.27;;;4.88;;
25922;SDS011;13725;51.170;4.442;2023-06-10T11:31:26;9.48;;;5.03;;
25922;SDS011;13725;51.170;4.442;2023-06-10T11:34:03;5.70;;;5.13;;
25922;SDS011;13725;51.170;4.442;2023-06-10T11:36:30;7.88;;;5.20;;
25922;SDS011;13725;51.170;4.442;2023-06-10T11:38:59;6.75;;;4.75;;
25922;SDS011;13725;51.170;4.442;2023-06-10T11:41:26;5.68;;;4.47;;
25922;SDS011;13725;51.170;4.442;2023-06-10T11:43:54;6.18;;;4.38;;
25922;SDS011;13725;51.170;4.442;2023-06-10T11:46:23;5.05;;;4.38;;
25922;SDS011;13725;51.170;4.442;2023-06-10T11:48:53;6.63;;;4.05;;
25922;SDS011;13725;51.170;4.442;2023-06-10T11:51:20;9.98;;;4.63;;
25922;SDS011;13725;51.170;4.442;2023-06-10T11:53:47;7.82;;;4.45;;
25922;SDS011;13725;51.170;4.442;2023-06-10T11:56:19;7.18;;;4.35;;
25922;SDS011;13725;51.170;4.442;2023-06-10T11:59:01;4.85;;;4.15;;
25922;SDS011;13725;51.170;4.442;2023-06-10T12:01:31;7.65;;;4.53;;
25922;SDS011;13725;51.170;4.442;2023-06-10T12:04:12;7.75;;;4.90;;
25922;SDS011;13725;51.170;4.442;2023-06-10T12:06:49;5.95;;;5.35;;
25922;SDS011;13725;51.170;4.442;2023-06-10T12:09:23;9.77;;;5.40;;
25922;SDS011;13725;51.170;4.442;2023-06-10T12:20:08;12.02;;;4.90;;
25922;SDS011;13725;51.170;4.442;2023-06-10T12:22:49;4.97;;;4.45;;
25922;SDS011;13725;51.170;4.442;2023-06-10T12:25:15;8.18;;;5.00;;
25922;SDS011;13725;51.170;4.442;2023-06-10T12:27:50;8.25;;;4.80;;
25922;SDS011;13725;51.170;4.442;2023-06-10T12:30:20;6.97;;;5.00;;
25922;SDS011;13725;51.170;4.442;2023-06-10T12:32:47;5.20;;;4.50;;
25922;SDS011;13725;51.170;4.442;2023-06-10T12:35:15;6.85;;;4.90;;
25922;SDS011;13725;51.170;4.442;2023-06-10T12:37:43;7.43;;;4.78;;
25922;SDS011;13725;51.170;4.442;2023-06-10T12:40:33;7.63;;;4.70;;
25922;SDS011;13725;51.170;4.442;2023-06-10T12:43:02;6.22;;;4.95;;
25922;SDS011;13725;51.170;4.442;2023-06-10T12:45:35;7.05;;;4.80;;
25922;SDS011;13725;51.170;4.442;2023-06-10T12:50:46;5.18;;;4.70;;
25922;SDS011;13725;51.170;4.442;2023-06-10T12:53:16;8.45;;;5.03;;
25922;SDS011;13725;51.170;4.442;2023-06-10T12:55:41;11.25;;;5.13;;
25922;SDS011;13725;51.170;4.442;2023-06-10T12:58:10;6.38;;;4.47;;
25922;SDS011;13725;51.170;4.442;2023-06-10T13:00:36;5.25;;;4.47;;
25922;SDS011;13725;51.170;4.442;2023-06-10T13:03:02;7.13;;;4.70;;
25922;SDS011;13725;51.170;4.442;2023-06-10T13:05:31;7.07;;;5.30;;
25922;SDS011;13725;51.170;4.442;2023-06-10T13:07:57;11.98;;;4.70;;
25922;SDS011;13725;51.170;4.442;2023-06-10T13:10:23;6.13;;;5.38;;
25922;SDS011;13725;51.170;4.442;2023-06-10T13:12:50;6.20;;;4.25;;
25922;SDS011;13725;51.170;4.442;2023-06-10T13:15:17;8.35;;;4.80;;
25922;SDS011;13725;51.170;4.442;2023-06-10T13:17:46;5.07;;;4.25;;
25922;SDS011;13725;51.170;4.442;2023-06-10T13:20:16;5.43;;;4.43;;
25922;SDS011;13725;51.170;4.442;2023-06-10T13:22:42;8.82;;;4.60;;
25922;SDS011;13725;51.170;4.442;2023-06-10T13:25:08;15.75;;;5.22;;
25922;SDS011;13725;51.170;4.442;2023-06-10T13:27:35;7.65;;;4.32;;
25922;SDS011;13725;51.170;4.442;2023-06-10T13:30:04;8.20;;;4.72;;
25922;SDS011;13725;51.170;4.442;2023-06-10T13:32:30;10.82;;;4.97;;
25922;SDS011;13725;51.170;4.442;2023-06-10T13:34:56;9.13;;;4.95;;
25922;SDS011;13725;51.170;4.442;2023-06-10T13:37:22;11.60;;;4.95;;
25922;SDS011;13725;51.170;4.442;2023-06-10T13:39:48;5.30;;;4.80;;
25922;SDS011;13725;51.170;4.442;2023-06-10T13:42:16;8.70;;;4.72;;
25922;SDS011;13725;51.170;4.442;2023-06-10T13:44:42;12.23;;;5.30;;
25922;SDS011;13725;51.170;4.442;2023-06-10T13:47:08;6.32;;;5.30;;
25922;SDS011;13725;51.170;4.442;2023-06-10T13:49:34;8.02;;;5.28;;
25922;SDS011;13725;51.170;4.442;2023-06-10T13:52:01;6.70;;;5.60;;
25922;SDS011;13725;51.170;4.442;2023-06-10T13:54:27;12.68;;;5.28;;
25922;SDS011;13725;51.170;4.442;2023-06-10T13:56:53;7.70;;;4.97;;
25922;SDS011;13725;51.170;4.442;2023-06-10T13:59:19;8.02;;;4.97;;
25922;SDS011;13725;51.170;4.442;2023-06-10T14:01:45;5.75;;;4.70;;
25922;SDS011;13725;51.170;4.442;2023-06-10T14:04:11;12.07;;;5.72;;
25922;SDS011;13725;51.170;4.442;2023-06-10T14:06:37;7.40;;;5.25;;
25922;SDS011;13725;51.170;4.442;2023-06-10T14:09:03;10.32;;;5.97;;
25922;SDS011;13725;51.170;4.442;2023-06-10T14:11:29;8.20;;;4.95;;
25922;SDS011;13725;51.170;4.442;2023-06-10T14:13:55;7.55;;;5.40;;
25922;SDS011;13725;51.170;4.442;2023-06-10T14:16:22;5.90;;;5.03;;
25922;SDS011;13725;51.170;4.442;2023-06-10T14:18:49;9.18;;;5.82;;
25922;SDS011;13725;51.170;4.442;2023-06-10T14:21:16;7.03;;;5.63;;
25922;SDS011;13725;51.170;4.442;2023-06-10T14:23:42;7.68;;;5.32;;
25922;SDS011;13725;51.170;4.442;2023-06-10T14:26:11;7.47;;;5.40;;
25922;SDS011;13725;51.170;4.442;2023-06-10T14:28:37;11.57;;;5.15;;
25922;SDS011;13725;51.170;4.442;2023-06-10T14:31:03;9.02;;;5.47;;
25922;SDS011;13725;51.170;4.442;2023-06-10T14:33:29;7.93;;;5.40;;
25922;SDS011;13725;51.170;4.442;2023-06-10T14:35:56;9.55;;;5.28;;
25922;SDS011;13725;51.170;4.442;2023-06-10T14:38:22;11.77;;;5.28;;
25922;SDS011;13725;51.170;4.442;2023-06-10T14:40:48;8.98;;;5.85;;
25922;SDS011;13725;51.170;4.442;2023-06-10T14:43:14;8.13;;;4.93;;
25922;SDS011;13725;51.170;4.442;2023-06-10T14:45:39;7.40;;;5.80;;
25922;SDS011;13725;51.170;4.442;2023-06-10T14:48:06;9.40;;;6.00;;
25922;SDS011;13725;51.170;4.442;2023-06-10T14:50:32;10.35;;;6.22;;
25922;SDS011;13725;51.170;4.442;2023-06-10T14:53:01;10.85;;;6.50;;
25922;SDS011;13725;51.170;4.442;2023-06-10T14:55:27;8.10;;;5.78;;
25922;SDS011;13725;51.170;4.442;2023-06-10T14:57:52;8.38;;;6.35;;
25922;SDS011;13725;51.170;4.442;2023-06-10T15:00:18;12.65;;;6.53;;
25922;SDS011;13725;51.170;4.442;2023-06-10T15:02:50;9.27;;;5.10;;
25922;SDS011;13725;51.170;4.442;2023-06-10T15:05:16;11.25;;;5.25;;
25922;SDS011;13725;51.170;4.442;2023-06-10T15:07:44;6.90;;;5.28;;
25922;SDS011;13725;51.170;4.442;2023-06-10T15:10:10;5.78;;;5.10;;
25922;SDS011;13725;51.170;4.442;2023-06-10T15:12:35;6.45;;;5.50;;
25922;SDS011;13725;51.170;4.442;2023-06-10T15:15:02;6.50;;;5.35;;
25922;SDS011;13725;51.170;4.442;2023-06-10T15:17:28;8.98;;;5.20;;
25922;SDS011;13725;51.170;4.442;2023-06-10T15:19:54;9.90;;;5.35;;